Time;durP1;ratioP1;P1;durP2;ratioP2;P2;SDS_P1;SDS_P2;PMS_P1;PMS_P2;Temp;Humidity;BMP_temperature;BMP_pressure;BME280_temperature;BME280_humidity;BME280_pressure;Samples;Min_cycle;Max_cycle;Signal;HPM_P1;HPM_P2
2023/04/16 00:02:20;;;;;;;18.35;8.13;;;8.00;85.00;;;;;;5016018;28;20128;-75
2023/04/16 00:04:47;;;;;;;15.65;8.38;;;7.90;84.80;;;;;;5024527;28;20033;-76
2023/04/16 00:07:13;;;;;;;16.67;8.57;;;8.00;84.90;;;;;;5022059;28;20043;-75
2023/04/16 00:09:39;;;;;;;16.50;7.78;;;8.00;84.90;;;;;;5011020;28;20034;-75
2023/04/16 00:12:05;;;;;;;19.45;9.95;;;7.90;85.00;;;;;;5025578;28;20114;-76
2023/04/16 00:14:31;;;;;;;19.05;9.27;;;7.90;85.10;;;;;;5015692;28;20068;-74
2023/04/16 00:16:57;;;;;;;16.05;8.68;;;8.00;85.10;;;;;;5018078;28;20398;-75
2023/04/16 00:19:23;;;;;;;14.73;8.23;;;8.00;84.90;;;;;;5022983;28;20145;-74
2023/04/16 00:21:49;;;;;;;18.58;9.23;;;8.10;85.00;;;;;;5025768;28;20026;-77
2023/04/16 00:24:15;;;;;;;21.95;8.90;;;8.00;85.00;;;;;;5012456;28;20100;-77
2023/04/16 00:26:43;;;;;;;20.02;9.20;;;8.00;84.90;;;;;;5014710;28;20128;-77
2023/04/16 00:29:09;;;;;;;17.02;8.95;;;8.10;85.00;;;;;;5011528;28;20037;-81
2023/04/16 00:31:35;;;;;;;18.23;9.20;;;8.00;85.10;;;;;;5015125;28;20053;-78
2023/04/16 00:34:01;;;;;;;16.52;8.60;;;8.10;85.00;;;;;;5024171;28;20030;-78
2023/04/16 00:36:27;;;;;;;20.80;10.25;;;8.10;85.00;;;;;;5021441;28;20082;-77
2023/04/16 00:38:54;;;;;;;19.52;9.02;;;8.10;85.00;;;;;;5011804;28;20026;-77
2023/04/16 00:41:21;;;;;;;18.42;9.60;;;8.10;85.00;;;;;;5018292;28;20045;-77
2023/04/16 00:43:47;;;;;;;19.70;9.52;;;8.10;85.00;;;;;;5013810;28;20034;-78
2023/04/16 00:46:15;;;;;;;16.02;10.32;;;8.10;85.00;;;;;;5038433;28;20543;-76
2023/04/16 00:48:43;;;;;;;19.13;10.10;;;8.10;84.90;;;;;;5022693;28;20468;-77
2023/04/16 00:51:10;;;;;;;21.80;10.13;;;8.10;84.90;;;;;;5016355;28;20034;-78
2023/04/16 00:53:36;;;;;;;16.23;8.75;;;8.10;84.90;;;;;;5012802;28;20022;-77
2023/04/16 00:56:04;;;;;;;19.10;9.38;;;8.10;85.00;;;;;;5020038;28;20033;-76
2023/04/16 00:58:31;;;;;;;21.08;11.43;;;8.10;84.90;;;;;;5023464;28;20036;-77
2023/04/16 01:00:56;;;;;;;19.70;10.75;;;8.10;85.00;;;;;;5015316;28;20048;-77
2023/04/16 01:03:37;;;;;;;18.08;10.35;;;8.00;84.90;;;;;;5020677;28;20041;-75
2023/04/16 01:06:03;;;;;;;16.90;10.68;;;8.00;85.10;;;;;;5013466;28;20474;-76
2023/04/16 01:08:28;;;;;;;17.58;11.30;;;8.00;85.00;;;;;;5018957;28;20043;-78
2023/04/16 01:10:55;;;;;;;19.17;11.80;;;7.90;85.20;;;;;;5022084;28;20124;-79
2023/04/16 01:13:20;;;;;;;16.85;10.52;;;8.00;85.20;;;;;;5030470;28;20052;-76
2023/04/16 01:15:46;;;;;;;20.33;11.50;;;8.00;85.30;;;;;;5025591;28;20445;-77
2023/04/16 01:18:16;;;;;;;18.33;11.35;;;8.00;85.10;;;;;;5027735;28;20040;-77
2023/04/16 01:20:42;;;;;;;17.40;10.98;;;8.00;85.40;;;;;;5025574;28;20516;-76
2023/04/16 01:23:08;;;;;;;19.05;11.48;;;8.00;85.50;;;;;;5022364;28;20029;-78
2023/04/16 01:25:34;;;;;;;20.35;11.68;;;8.00;85.40;;;;;;5027172;28;20521;-76
2023/04/16 01:27:59;;;;;;;20.05;12.23;;;8.00;85.50;;;;;;5027677;28;20574;-78
2023/04/16 01:30:25;;;;;;;22.92;12.13;;;8.00;85.40;;;;;;5025260;28;20033;-77
2023/04/16 01:32:51;;;;;;;23.75;12.80;;;8.00;85.50;;;;;;5019683;28;20405;-78
2023/04/16 01:35:17;;;;;;;21.92;13.43;;;8.00;85.40;;;;;;5027590;28;20445;-77
2023/04/16 01:37:43;;;;;;;23.25;12.57;;;8.00;85.50;;;;;;5020714;28;20029;-77
2023/04/16 01:40:09;;;;;;;19.85;13.98;;;8.00;85.50;;;;;;5017562;28;20478;-78
2023/04/16 01:42:37;;;;;;;22.00;12.77;;;8.00;85.50;;;;;;5016467;28;20029;-78
2023/04/16 01:45:03;;;;;;;18.10;13.05;;;8.00;85.60;;;;;;5019508;28;20037;-77
2023/04/16 01:47:29;;;;;;;23.65;13.35;;;8.00;85.60;;;;;;5024519;28;20025;-77
2023/04/16 01:49:55;;;;;;;21.35;15.43;;;7.90;85.70;;;;;;5021568;28;20379;-77
2023/04/16 01:52:21;;;;;;;22.63;15.00;;;7.80;85.80;;;;;;5022993;28;20080;-78
2023/04/16 01:54:47;;;;;;;26.48;16.17;;;7.80;85.90;;;;;;5014010;28;20037;-76
2023/04/16 01:57:12;;;;;;;25.85;15.07;;;7.80;85.70;;;;;;5022500;28;20382;-77
2023/04/16 01:59:38;;;;;;;21.50;14.10;;;7.80;85.60;;;;;;5019404;28;20042;-76
2023/04/16 02:02:15;;;;;;;21.73;14.43;;;7.80;85.50;;;;;;5022416;28;20036;-79
2023/04/16 02:04:45;;;;;;;25.50;15.07;;;7.80;85.50;;;;;;5018898;28;20133;-80
2023/04/16 02:07:11;;;;;;;25.08;14.68;;;7.80;85.50;;;;;;5019067;28;20092;-79
2023/04/16 02:09:39;;;;;;;24.63;14.55;;;7.80;85.40;;;;;;5024966;28;20064;-77
2023/04/16 02:12:05;;;;;;;24.85;14.80;;;7.80;85.40;;;;;;5021697;28;20029;-79
2023/04/16 02:14:32;;;;;;;25.90;15.70;;;7.80;85.40;;;;;;5018855;28;20030;-78
2023/04/16 02:16:58;;;;;;;24.60;15.90;;;7.80;85.40;;;;;;5023600;28;20506;-77
2023/04/16 02:19:24;;;;;;;22.30;16.25;;;7.80;85.30;;;;;;5017484;28;20040;-79
2023/04/16 02:21:53;;;;;;;26.70;17.67;;;7.80;85.30;;;;;;5022093;28;20029;-77
2023/04/16 02:24:20;;;;;;;28.45;18.52;;;7.80;85.30;;;;;;5022847;28;20021;-78
2023/04/16 02:26:46;;;;;;;27.55;18.85;;;7.90;85.20;;;;;;5022530;28;20033;-77
2023/04/16 02:29:12;;;;;;;30.83;19.65;;;7.90;85.20;;;;;;5020298;28;20046;-79
2023/04/16 02:31:38;;;;;;;30.05;18.90;;;7.90;85.20;;;;;;5020398;28;20033;-77
2023/04/16 02:34:04;;;;;;;30.15;20.17;;;7.90;85.10;;;;;;5019276;28;20029;-79
2023/04/16 02:36:31;;;;;;;24.95;18.50;;;7.80;85.10;;;;;;5019267;28;20061;-81
2023/04/16 02:38:58;;;;;;;26.90;18.98;;;7.80;85.10;;;;;;5015161;28;20040;-80
2023/04/16 02:41:24;;;;;;;26.48;18.38;;;7.80;85.00;;;;;;5020775;28;20050;-77
2023/04/16 02:43:50;;;;;;;25.15;16.10;;;7.70;85.00;;;;;;5019374;28;20029;-77
2023/04/16 02:46:15;;;;;;;23.73;16.35;;;7.70;85.00;;;;;;5022201;28;20049;-77
2023/04/16 02:48:41;;;;;;;23.05;15.68;;;7.60;85.10;;;;;;5022914;28;20112;-77
2023/04/16 02:51:07;;;;;;;21.65;13.40;;;7.60;85.10;;;;;;5020578;28;20427;-77
2023/04/16 02:53:33;;;;;;;20.40;13.13;;;7.50;85.00;;;;;;5021256;28;20029;-78
2023/04/16 02:55:58;;;;;;;20.58;12.52;;;7.40;85.10;;;;;;5015914;28;20034;-78
2023/04/16 02:58:25;;;;;;;20.33;12.32;;;7.40;85.00;;;;;;4974514;28;1497913;-78
2023/04/16 03:00:52;;;;;;;17.55;10.90;;;7.40;85.00;;;;;;5019886;28;20080;-78
2023/04/16 03:03:18;;;;;;;17.00;10.52;;;7.30;84.80;;;;;;5017541;28;20033;-77
2023/04/16 03:05:44;;;;;;;18.70;10.68;;;7.30;84.70;;;;;;5027476;28;20028;-80
2023/04/16 03:08:10;;;;;;;18.30;11.50;;;7.20;84.80;;;;;;5022199;28;20145;-78
2023/04/16 03:10:36;;;;;;;17.90;9.93;;;7.20;84.80;;;;;;5020146;28;20116;-76
2023/04/16 03:13:02;;;;;;;18.30;8.93;;;7.20;84.70;;;;;;5018291;28;20033;-77
2023/04/16 03:15:29;;;;;;;15.65;9.50;;;7.10;84.70;;;;;;5022086;28;20030;-81
2023/04/16 03:17:56;;;;;;;16.75;8.60;;;7.10;84.60;;;;;;5019450;28;20040;-77
2023/04/16 03:20:22;;;;;;;18.65;8.32;;;7.10;84.70;;;;;;5032456;28;20084;-77
2023/04/16 03:22:51;;;;;;;14.45;8.45;;;7.10;84.70;;;;;;5019891;28;20073;-79
2023/04/16 03:25:17;;;;;;;15.82;8.18;;;7.00;84.70;;;;;;5022702;28;20028;-78
2023/04/16 03:27:43;;;;;;;21.25;8.93;;;7.00;84.70;;;;;;5026662;28;20049;-80
2023/04/16 03:30:13;;;;;;;19.50;8.43;;;7.00;84.60;;;;;;5050592;28;20033;-80
2023/04/16 03:32:39;;;;;;;12.70;7.97;;;7.10;84.70;;;;;;5049717;28;20066;-79
2023/04/16 03:35:06;;;;;;;14.98;8.27;;;7.10;84.70;;;;;;5037308;28;20058;-78
2023/04/16 03:37:34;;;;;;;15.30;8.40;;;7.10;84.70;;;;;;5015965;28;20042;-76
2023/04/16 03:40:00;;;;;;;13.45;8.75;;;7.10;84.70;;;;;;5028570;28;20108;-77
2023/04/16 03:42:26;;;;;;;15.65;8.15;;;7.10;84.60;;;;;;5027489;28;20049;-77
2023/04/16 03:44:52;;;;;;;18.30;8.75;;;7.20;84.70;;;;;;5024537;28;20510;-78
2023/04/16 03:47:19;;;;;;;15.10;8.15;;;7.20;84.70;;;;;;5022337;28;20048;-77
2023/04/16 03:49:45;;;;;;;14.32;8.73;;;7.20;84.70;;;;;;5018377;28;20417;-78
2023/04/16 03:52:11;;;;;;;13.32;7.70;;;7.30;84.80;;;;;;5020045;28;20034;-77
2023/04/16 03:54:37;;;;;;;12.80;7.15;;;7.30;84.80;;;;;;5029166;28;20021;-77
2023/04/16 03:57:03;;;;;;;16.15;7.70;;;7.30;84.80;;;;;;5024027;28;20532;-77
2023/04/16 03:59:29;;;;;;;16.30;7.60;;;7.30;84.90;;;;;;5029682;28;20102;-77
2023/04/16 04:01:55;;;;;;;13.75;7.35;;;7.40;84.70;;;;;;5027006;28;20468;-78
2023/04/16 04:04:21;;;;;;;14.68;6.95;;;7.30;84.60;;;;;;5023446;28;20474;-80
2023/04/16 04:06:46;;;;;;;12.88;7.30;;;7.30;84.60;;;;;;5027317;28;20033;-78
2023/04/16 04:09:15;;;;;;;14.05;6.90;;;7.40;84.80;;;;;;5022459;28;20505;-79
2023/04/16 04:11:41;;;;;;;13.57;6.82;;;7.40;84.90;;;;;;5025042;28;20055;-78
2023/04/16 04:14:06;;;;;;;14.10;7.90;;;7.40;84.80;;;;;;5020371;28;20029;-76
2023/04/16 04:16:33;;;;;;;19.30;7.88;;;7.40;84.80;;;;;;5028875;28;20045;-81
2023/04/16 04:18:59;;;;;;;13.88;7.28;;;7.50;84.70;;;;;;5027300;28;20064;-79
2023/04/16 04:21:28;;;;;;;13.35;6.35;;;7.50;84.50;;;;;;5025710;28;20036;-78
2023/04/16 04:23:54;;;;;;;15.13;6.55;;;7.50;84.70;;;;;;5018028;28;20031;-78
2023/04/16 04:26:19;;;;;;;14.07;6.68;;;7.50;84.80;;;;;;5021864;28;20037;-77
2023/04/16 04:28:46;;;;;;;11.48;6.65;;;7.50;84.70;;;;;;5016048;28;20025;-77
2023/04/16 04:31:12;;;;;;;16.65;5.90;;;7.60;84.50;;;;;;5028628;28;20454;-80
2023/04/16 04:33:37;;;;;;;13.60;6.00;;;7.60;84.20;;;;;;5018519;28;20454;-77
2023/04/16 04:36:03;;;;;;;15.93;5.72;;;7.60;84.10;;;;;;5021709;28;20107;-77
2023/04/16 04:38:30;;;;;;;13.85;5.90;;;7.60;84.10;;;;;;5021140;28;20121;-77
2023/04/16 04:40:55;;;;;;;16.08;5.65;;;7.60;84.10;;;;;;5019138;28;20029;-76
2023/04/16 04:43:22;;;;;;;9.80;4.93;;;7.60;83.70;;;;;;5018960;28;20025;-76
2023/04/16 04:45:48;;;;;;;12.40;4.88;;;7.70;83.60;;;;;;5024454;28;20065;-78
2023/04/16 04:48:14;;;;;;;16.35;5.50;;;7.70;83.40;;;;;;5017615;28;20029;-77
2023/04/16 04:50:40;;;;;;;16.20;5.78;;;7.80;83.30;;;;;;5016719;28;20021;-76
2023/04/16 04:53:08;;;;;;;11.13;5.13;;;7.80;83.20;;;;;;5013448;28;20018;-78
2023/04/16 04:55:38;;;;;;;12.90;5.07;;;7.80;83.20;;;;;;5014498;28;20386;-80
2023/04/16 04:58:05;;;;;;;15.27;5.43;;;7.80;83.10;;;;;;5012458;28;20052;-80
2023/04/16 05:00:32;;;;;;;10.02;5.00;;;7.80;83.20;;;;;;5023892;28;20045;-78
2023/04/16 05:03:02;;;;;;;12.82;5.78;;;7.90;83.00;;;;;;5029167;28;20038;-78
2023/04/16 05:05:28;;;;;;;15.65;5.65;;;7.90;83.10;;;;;;5028127;28;20033;-80
2023/04/16 05:07:54;;;;;;;12.35;5.53;;;7.90;83.20;;;;;;5029646;28;20144;-78
2023/04/16 05:10:19;;;;;;;15.48;6.13;;;7.90;83.10;;;;;;5032479;28;20030;-77
2023/04/16 05:12:47;;;;;;;15.70;5.72;;;8.00;82.90;;;;;;5020987;28;20033;-80
2023/04/16 05:15:13;;;;;;;11.82;5.90;;;8.00;82.90;;;;;;5031355;28;20029;-79
2023/04/16 05:17:39;;;;;;;13.00;6.28;;;8.00;82.80;;;;;;5018918;28;20138;-77
2023/04/16 05:20:06;;;;;;;13.05;6.43;;;8.00;82.80;;;;;;5016987;28;20112;-77
2023/04/16 05:22:32;;;;;;;14.70;6.50;;;8.00;82.70;;;;;;5027429;28;20049;-78
2023/04/16 05:24:57;;;;;;;11.15;6.50;;;8.10;82.70;;;;;;5020310;28;20036;-78
2023/04/16 05:27:23;;;;;;;13.85;7.07;;;8.10;82.50;;;;;;5020021;28;20048;-77
2023/04/16 05:29:49;;;;;;;12.73;6.90;;;8.10;82.50;;;;;;5023323;28;20749;-77
2023/04/16 05:32:14;;;;;;;17.08;7.25;;;8.10;82.30;;;;;;5017728;28;20482;-78
2023/04/16 05:34:40;;;;;;;11.93;6.60;;;8.20;82.30;;;;;;5029050;28;20025;-77
2023/04/16 05:37:06;;;;;;;17.38;6.88;;;8.20;82.40;;;;;;5031644;28;20075;-78
2023/04/16 05:39:31;;;;;;;15.40;6.43;;;8.20;82.30;;;;;;5022007;28;20029;-77
2023/04/16 05:41:57;;;;;;;17.98;6.72;;;8.30;82.50;;;;;;5024100;28;20038;-78
2023/04/16 05:44:23;;;;;;;16.65;7.00;;;8.30;82.40;;;;;;5013231;28;20057;-76
2023/04/16 05:46:48;;;;;;;15.88;6.72;;;8.40;82.30;;;;;;5017163;28;20057;-78
2023/04/16 05:49:17;;;;;;;12.88;6.82;;;8.40;82.20;;;;;;5010093;28;20635;-80
2023/04/16 05:51:43;;;;;;;15.68;6.85;;;8.40;82.10;;;;;;5017481;28;20030;-77
2023/04/16 05:54:08;;;;;;;16.38;6.60;;;8.50;82.00;;;;;;5018888;28;20036;-81
2023/04/16 05:56:34;;;;;;;11.98;6.15;;;8.50;81.70;;;;;;5019953;28;20034;-80
2023/04/16 05:59:00;;;;;;;11.60;5.95;;;8.50;81.60;;;;;;5020782;28;20045;-78
2023/04/16 06:01:25;;;;;;;12.55;5.80;;;8.50;81.40;;;;;;5015217;28;20040;-78
2023/04/16 06:03:51;;;;;;;12.60;6.88;;;8.60;81.30;;;;;;5017221;28;20037;-78
2023/04/16 06:06:17;;;;;;;10.77;5.65;;;8.60;81.30;;;;;;5013252;28;20103;-77
2023/04/16 06:08:42;;;;;;;11.80;5.75;;;8.60;81.00;;;;;;5018822;28;20030;-78
2023/04/16 06:11:08;;;;;;;17.77;5.95;;;8.60;81.00;;;;;;5014343;28;20034;-79
2023/04/16 06:13:34;;;;;;;13.60;5.90;;;8.70;81.10;;;;;;5017736;28;20062;-78
2023/04/16 06:15:59;;;;;;;16.88;5.65;;;8.70;80.50;;;;;;5023832;28;20034;-78
2023/04/16 06:18:25;;;;;;;15.02;5.43;;;8.70;80.50;;;;;;5015881;28;20037;-79
2023/04/16 06:20:51;;;;;;;15.43;5.35;;;8.70;80.20;;;;;;5019007;28;20029;-76
2023/04/16 06:23:17;;;;;;;14.70;5.10;;;8.80;80.40;;;;;;5017435;28;20454;-77
2023/04/16 06:25:42;;;;;;;11.73;4.38;;;8.90;80.10;;;;;;5016089;28;20026;-77
2023/04/16 06:28:08;;;;;;;11.25;4.90;;;8.80;79.90;;;;;;5022840;28;20049;-79
2023/04/16 06:30:34;;;;;;;13.18;4.78;;;8.80;79.90;;;;;;5019858;28;20430;-77
2023/04/16 06:32:59;;;;;;;9.77;5.10;;;9.00;80.10;;;;;;5019558;28;20100;-78
2023/04/16 06:35:25;;;;;;;12.95;4.78;;;9.00;79.80;;;;;;5020578;28;20485;-76
2023/04/16 06:37:51;;;;;;;11.43;4.50;;;9.00;79.20;;;;;;5014383;28;20113;-75
2023/04/16 06:40:16;;;;;;;10.40;4.63;;;9.10;79.40;;;;;;5024915;28;20024;-75
2023/04/16 06:42:42;;;;;;;12.05;5.00;;;9.10;79.30;;;;;;5026774;28;20038;-76
2023/04/16 06:45:08;;;;;;;9.13;3.50;;;9.10;78.10;;;;;;5032532;28;20032;-75
2023/04/16 06:47:34;;;;;;;12.70;4.55;;;9.00;77.30;;;;;;5024104;28;20022;-79
2023/04/16 06:50:00;;;;;;;10.05;3.92;;;9.00;78.00;;;;;;5029617;28;20420;-75
2023/04/16 06:52:25;;;;;;;9.88;3.83;;;9.10;77.70;;;;;;5026329;28;20042;-75
2023/04/16 06:54:51;;;;;;;9.55;3.08;;;9.00;77.10;;;;;;5029656;28;20044;-74
2023/04/16 06:57:17;;;;;;;13.13;4.47;;;9.10;77.60;;;;;;5026215;28;20038;-74
2023/04/16 06:59:43;;;;;;;9.77;3.67;;;9.20;77.10;;;;;;5030014;28;20096;-76
2023/04/16 07:02:09;;;;;;;13.50;3.75;;;9.40;76.90;;;;;;5034534;28;20481;-76
2023/04/16 07:04:35;;;;;;;10.93;3.70;;;9.50;76.50;;;;;;5029826;28;20021;-77
2023/04/16 07:07:01;;;;;;;9.68;3.97;;;9.50;76.50;;;;;;5030932;28;20041;-74
2023/04/16 07:09:26;;;;;;;11.82;3.58;;;9.50;76.40;;;;;;5029918;28;20041;-75
2023/04/16 07:11:53;;;;;;;11.35;3.28;;;9.50;75.70;;;;;;5025670;28;20596;-74
2023/04/16 07:14:19;;;;;;;10.35;3.00;;;9.40;76.50;;;;;;5022692;28;20018;-74
2023/04/16 07:16:44;;;;;;;11.02;3.08;;;9.50;75.60;;;;;;5024929;28;20727;-75
2023/04/16 07:19:10;;;;;;;8.98;3.00;;;9.40;75.60;;;;;;5023667;28;20033;-75
2023/04/16 07:21:36;;;;;;;10.57;2.65;;;9.40;75.60;;;;;;5025802;28;20041;-76
2023/04/16 07:24:02;;;;;;;10.07;3.50;;;9.60;74.90;;;;;;5020382;28;20040;-75
2023/04/16 07:26:28;;;;;;;8.27;3.30;;;9.70;75.10;;;;;;5022288;28;20505;-82
2023/04/16 07:28:53;;;;;;;7.68;2.72;;;9.70;74.40;;;;;;5016678;28;20080;-77
2023/04/16 07:31:19;;;;;;;9.20;2.72;;;9.70;74.30;;;;;;5025139;28;20079;-77
2023/04/16 07:33:45;;;;;;;11.55;2.63;;;9.80;74.50;;;;;;5017963;28;20026;-78
2023/04/16 07:36:11;;;;;;;11.50;3.13;;;9.80;74.00;;;;;;5025844;28;20458;-78
2023/04/16 07:38:36;;;;;;;7.40;3.15;;;9.80;74.70;;;;;;5025059;28;20083;-77
2023/04/16 07:41:02;;;;;;;7.22;2.90;;;9.90;74.30;;;;;;5020782;28;20033;-77
2023/04/16 07:43:28;;;;;;;9.60;3.55;;;10.00;73.90;;;;;;5023492;28;20029;-80
2023/04/16 07:45:54;;;;;;;7.20;3.05;;;9.90;73.90;;;;;;5020850;28;20037;-78
2023/04/16 07:48:20;;;;;;;8.35;3.05;;;9.80;74.10;;;;;;5024525;28;20041;-82
2023/04/16 07:50:46;;;;;;;8.95;3.33;;;9.80;74.50;;;;;;5021423;28;20026;-79
2023/04/16 07:53:12;;;;;;;10.32;3.53;;;10.00;74.30;;;;;;5024895;28;20498;-78
2023/04/16 07:55:37;;;;;;;11.13;3.95;;;10.30;74.80;;;;;;5023907;28;20037;-78
2023/04/16 07:58:05;;;;;;;8.25;3.83;;;10.60;73.00;;;;;;5021367;28;20068;-77
2023/04/16 08:00:31;;;;;;;9.15;3.38;;;10.60;72.50;;;;;;5021322;28;20060;-79
2023/04/16 08:02:57;;;;;;;10.43;3.85;;;10.70;72.80;;;;;;5030554;28;20181;-79
2023/04/16 08:05:23;;;;;;;9.27;3.42;;;10.60;73.10;;;;;;5031841;28;20120;-79
2023/04/16 08:07:48;;;;;;;7.55;3.33;;;10.60;72.50;;;;;;5024850;28;20041;-80
2023/04/16 08:10:14;;;;;;;9.68;3.20;;;10.60;73.10;;;;;;5033834;28;20458;-80
2023/04/16 08:12:40;;;;;;;9.48;3.00;;;10.40;73.30;;;;;;5022485;28;20489;-81
2023/04/16 08:15:06;;;;;;;6.13;2.70;;;10.50;73.40;;;;;;5022268;28;20363;-79
2023/04/16 08:17:33;;;;;;;9.57;3.10;;;10.40;73.50;;;;;;5021353;28;20042;-80
2023/04/16 08:19:59;;;;;;;10.35;3.13;;;10.60;73.30;;;;;;5019808;28;20025;-80
2023/04/16 08:22:25;;;;;;;8.35;3.00;;;10.60;73.00;;;;;;5020503;28;20087;-80
2023/04/16 08:24:51;;;;;;;11.10;2.78;;;10.60;73.00;;;;;;5022464;28;20388;-83
2023/04/16 08:27:17;;;;;;;8.68;3.20;;;10.50;72.90;;;;;;5019064;28;20121;-79
2023/04/16 08:29:42;;;;;;;8.63;3.35;;;10.40;73.90;;;;;;5021413;28;21082;-78
2023/04/16 08:32:09;;;;;;;8.80;3.10;;;10.60;72.90;;;;;;5023661;28;20035;-79
2023/04/16 08:34:35;;;;;;;8.80;3.00;;;10.60;73.10;;;;;;5021826;28;20020;-74
2023/04/16 08:37:01;;;;;;;10.30;2.95;;;10.60;72.30;;;;;;5015062;28;20044;-78
2023/04/16 08:39:27;;;;;;;9.50;3.13;;;10.70;72.70;;;;;;5028553;28;20050;-77
2023/04/16 08:41:54;;;;;;;8.77;2.70;;;10.60;71.60;;;;;;5023253;28;20406;-80
2023/04/16 08:44:25;;;;;;;8.73;2.63;;;10.60;71.90;;;;;;5019308;28;20025;-76
2023/04/16 08:46:56;;;;;;;11.63;3.50;;;10.60;71.80;;;;;;5016481;28;20516;-79
2023/04/16 08:49:24;;;;;;;9.38;2.90;;;11.00;71.60;;;;;;5024404;28;20044;-75
2023/04/16 08:51:52;;;;;;;9.82;2.70;;;11.40;70.70;;;;;;5018341;28;20042;-75
2023/04/16 08:54:59;;;;;;;5.57;1.98;;;11.60;69.20;;;;;;5023102;28;20028;-74
2023/04/16 08:57:36;;;;;;;6.72;2.40;;;11.70;68.00;;;;;;5030312;28;20515;-76
2023/04/16 09:00:02;;;;;;;9.02;2.95;;;11.80;67.80;;;;;;5028568;28;20052;-76
2023/04/16 09:02:30;;;;;;;8.43;3.03;;;11.90;67.60;;;;;;5035894;28;20509;-76
2023/04/16 09:04:59;;;;;;;7.68;3.28;;;12.10;67.90;;;;;;5026817;28;20046;-75
2023/04/16 09:07:27;;;;;;;6.25;2.47;;;12.10;67.80;;;;;;5019478;28;20470;-75
2023/04/16 09:09:54;;;;;;;11.65;3.70;;;12.10;66.90;;;;;;5020420;28;20018;-73
2023/04/16 09:12:23;;;;;;;8.65;3.28;;;11.50;68.50;;;;;;5026046;28;20079;-74
2023/04/16 09:14:49;;;;;;;8.48;3.40;;;11.70;69.60;;;;;;5017895;28;20033;-74
2023/04/16 09:17:16;;;;;;;9.65;3.90;;;12.10;69.40;;;;;;5021053;28;20040;-74
2023/04/16 09:19:43;;;;;;;6.65;2.75;;;12.40;66.80;;;;;;5021932;28;20068;-74
2023/04/16 09:22:08;;;;;;;6.05;2.40;;;12.30;66.40;;;;;;5024618;28;20022;-75
2023/04/16 09:24:34;;;;;;;11.65;3.42;;;12.10;67.50;;;;;;5028518;28;20567;-75
2023/04/16 09:27:01;;;;;;;10.02;2.63;;;12.40;66.00;;;;;;5010628;28;20061;-74
2023/04/16 09:29:38;;;;;;;5.97;2.70;;;12.60;66.80;;;;;;5017150;28;20037;-75
2023/04/16 09:32:06;;;;;;;7.93;3.10;;;12.80;66.20;;;;;;5018879;28;20034;-75
2023/04/16 09:34:33;;;;;;;9.57;3.13;;;12.80;65.10;;;;;;5023824;28;20029;-75
2023/04/16 09:37:17;;;;;;;10.38;3.67;;;12.50;66.30;;;;;;5020940;28;20034;-75
2023/04/16 09:39:44;;;;;;;7.70;3.42;;;12.60;66.30;;;;;;5023315;28;20044;-74
2023/04/16 09:42:11;;;;;;;9.07;3.05;;;12.20;67.10;;;;;;5024557;28;20040;-75
2023/04/16 09:44:37;;;;;;;7.93;3.03;;;12.40;67.70;;;;;;5026128;28;20037;-74
2023/04/16 09:47:08;;;;;;;8.85;2.90;;;12.60;67.20;;;;;;5019395;28;20037;-75
2023/04/16 09:49:39;;;;;;;8.88;2.83;;;12.40;67.30;;;;;;5026804;28;20033;-74
2023/04/16 09:52:13;;;;;;;9.35;3.25;;;12.60;67.70;;;;;;5024538;28;20097;-75
2023/04/16 09:54:49;;;;;;;9.77;3.72;;;12.40;67.80;;;;;;5024953;28;20029;-74
2023/04/16 09:57:21;;;;;;;10.48;3.40;;;12.60;67.70;;;;;;5023528;28;20091;-75
2023/04/16 09:59:56;;;;;;;10.20;3.45;;;12.60;68.10;;;;;;5024642;28;20069;-75
2023/04/16 10:02:33;;;;;;;10.73;3.65;;;12.10;68.40;;;;;;5015368;28;20536;-75
2023/04/16 10:05:04;;;;;;;11.23;4.13;;;12.20;68.80;;;;;;5021855;28;20087;-76
2023/04/16 10:07:34;;;;;;;8.82;3.60;;;12.40;69.40;;;;;;5024553;28;20559;-75
2023/04/16 10:10:01;;;;;;;9.63;3.03;;;12.60;68.30;;;;;;5026252;28;20061;-75
2023/04/16 10:12:29;;;;;;;8.90;3.55;;;12.70;68.10;;;;;;5023836;28;20045;-76
2023/04/16 10:14:54;;;;;;;8.43;2.97;;;12.60;67.10;;;;;;5022420;28;20115;-75
2023/04/16 10:17:21;;;;;;;8.88;3.25;;;13.00;67.00;;;;;;5021616;28;20490;-75
2023/04/16 10:19:47;;;;;;;7.85;3.38;;;13.20;66.30;;;;;;5019605;28;20036;-75
2023/04/16 10:22:14;;;;;;;8.30;3.40;;;13.40;66.00;;;;;;5022063;28;20045;-78
2023/04/16 10:24:40;;;;;;;7.50;3.13;;;13.70;64.70;;;;;;5028585;28;20021;-78
2023/04/16 10:27:06;;;;;;;8.10;3.50;;;13.10;66.10;;;;;;5030676;28;20116;-78
2023/04/16 10:29:33;;;;;;;9.40;3.20;;;13.40;65.20;;;;;;5024398;28;20040;-77
2023/04/16 10:32:00;;;;;;;8.75;3.90;;;13.50;65.60;;;;;;5024549;28;20042;-77
2023/04/16 10:34:27;;;;;;;6.65;2.97;;;13.40;66.40;;;;;;5027816;28;20064;-77
2023/04/16 10:36:54;;;;;;;7.95;3.05;;;13.10;66.20;;;;;;5029840;28;20042;-76
2023/04/16 10:39:26;;;;;;;7.15;2.80;;;13.20;66.20;;;;;;5030170;28;20114;-75
2023/04/16 10:42:07;;;;;;;6.80;2.70;;;13.30;66.00;;;;;;5031904;28;20041;-76
2023/04/16 10:44:36;;;;;;;7.25;2.55;;;13.50;65.60;;;;;;5024791;28;20141;-75
2023/04/16 10:47:09;;;;;;;7.32;2.90;;;13.50;63.60;;;;;;5025423;28;20037;-75
2023/04/16 10:49:35;;;;;;;6.93;3.08;;;13.60;64.60;;;;;;5024133;28;20113;-76
2023/04/16 10:52:11;;;;;;;7.72;3.03;;;13.50;64.40;;;;;;5028757;28;20041;-75
2023/04/16 10:54:38;;;;;;;9.10;3.53;;;13.10;66.30;;;;;;5025503;28;20247;-74
2023/04/16 10:57:07;;;;;;;9.45;3.50;;;13.00;66.40;;;;;;5018609;28;20128;-77
2023/04/16 10:59:34;;;;;;;7.65;3.60;;;13.20;66.40;;;;;;5015917;28;20084;-78
2023/04/16 11:02:06;;;;;;;6.43;3.60;;;13.60;66.40;;;;;;5027379;28;20040;-77
2023/04/16 11:04:37;;;;;;;10.02;3.67;;;13.70;66.10;;;;;;5017546;28;20364;-75
2023/04/16 11:07:18;;;;;;;7.82;3.20;;;13.80;66.80;;;;;;5031184;28;20045;-75
2023/04/16 11:09:51;;;;;;;5.97;2.88;;;13.70;64.70;;;;;;5016853;28;20038;-74
2023/04/16 11:12:18;;;;;;;11.18;3.75;;;13.10;65.90;;;;;;5023275;28;20094;-75
2023/04/16 11:14:52;;;;;;;8.30;3.80;;;13.10;66.60;;;;;;5027735;28;20116;-76
2023/04/16 11:17:19;;;;;;;9.48;3.50;;;13.10;67.50;;;;;;5020569;28;20502;-77
2023/04/16 11:19:46;;;;;;;7.43;3.38;;;13.70;66.30;;;;;;5014888;28;20032;-75
2023/04/16 11:22:16;;;;;;;8.10;3.92;;;14.30;65.10;;;;;;5024782;28;20463;-76
2023/04/16 11:24:46;;;;;;;7.10;3.60;;;14.50;64.20;;;;;;5018386;28;20034;-75
2023/04/16 11:27:14;;;;;;;8.05;3.78;;;14.10;65.90;;;;;;5016194;28;20037;-75
2023/04/16 11:29:40;;;;;;;7.55;3.83;;;13.60;65.40;;;;;;5021779;28;20165;-75
2023/04/16 11:32:06;;;;;;;8.88;3.55;;;13.80;65.60;;;;;;5017409;28;20040;-76
2023/04/16 11:34:32;;;;;;;8.13;3.75;;;13.80;65.60;;;;;;5016551;28;20035;-76
2023/04/16 11:36:58;;;;;;;9.02;3.33;;;14.00;65.90;;;;;;5018458;28;20374;-77
2023/04/16 11:39:24;;;;;;;9.20;3.67;;;14.20;65.40;;;;;;5016875;28;20037;-77
2023/04/16 11:41:54;;;;;;;8.38;4.03;;;14.40;64.40;;;;;;5018959;28;20034;-75
2023/04/16 11:44:22;;;;;;;10.63;4.45;;;14.10;65.00;;;;;;5015412;28;20025;-75
2023/04/16 11:46:49;;;;;;;9.38;4.43;;;14.00;65.10;;;;;;5017183;28;20414;-74
2023/04/16 11:49:16;;;;;;;9.18;4.30;;;14.20;66.00;;;;;;5016884;28;20022;-74
2023/04/16 11:51:46;;;;;;;7.28;3.80;;;14.10;65.10;;;;;;5013940;28;20091;-75
2023/04/16 11:54:18;;;;;;;8.88;3.60;;;14.50;65.40;;;;;;5016908;28;20034;-74
2023/04/16 11:56:46;;;;;;;6.75;3.70;;;14.30;64.40;;;;;;5022724;28;20089;-74
2023/04/16 11:59:21;;;;;;;8.85;3.97;;;14.20;64.70;;;;;;5033845;28;20426;-78
2023/04/16 12:01:52;;;;;;;8.18;3.42;;;14.20;64.30;;;;;;5023087;28;20266;-82
2023/04/16 12:04:19;;;;;;;9.23;4.20;;;14.40;65.00;;;;;;5021903;28;20059;-84
2023/04/16 12:07:15;;;;;;;9.27;4.50;;;14.30;64.90;;;;;;5031165;28;20044;-78
2023/04/16 12:09:42;;;;;;;11.48;4.82;;;14.40;65.20;;;;;;5020288;28;20584;-84
2023/04/16 12:12:29;;;;;;;10.27;4.40;;;14.40;64.30;;;;;;5017376;28;20030;-85
2023/04/16 12:14:56;;;;;;;10.98;4.68;;;14.50;64.70;;;;;;5022362;28;20216;-86
2023/04/16 12:17:22;;;;;;;9.15;4.50;;;14.50;65.20;;;;;;5022293;28;20572;-85
2023/04/16 12:19:54;;;;;;;9.05;4.60;;;14.60;65.10;;;;;;5015920;28;20045;-85
2023/04/16 12:22:33;;;;;;;8.80;4.18;;;14.30;64.80;;;;;;5017911;28;20037;-84
2023/04/16 12:25:04;;;;;;;9.30;4.55;;;14.20;65.10;;;;;;5020514;28;20029;-83
2023/04/16 12:27:54;;;;;;;9.55;4.60;;;14.10;66.30;;;;;;5017514;28;20026;-84
2023/04/16 12:30:22;;;;;;;9.65;4.80;;;14.10;67.00;;;;;;5022762;28;20485;-83
2023/04/16 12:32:49;;;;;;;11.48;4.70;;;14.10;66.40;;;;;;5018237;28;20041;-84
2023/04/16 12:35:32;;;;;;;8.88;4.32;;;13.90;66.30;;;;;;5021849;28;21165;-82
2023/04/16 12:37:59;;;;;;;10.73;4.55;;;13.90;67.00;;;;;;5019656;28;20034;-80
2023/04/16 12:40:25;;;;;;;9.18;4.88;;;14.00;66.30;;;;;;5024368;28;20241;-81
2023/04/16 12:42:51;;;;;;;10.63;4.05;;;14.30;65.90;;;;;;5025314;28;20030;-80
2023/04/16 12:45:17;;;;;;;7.93;4.50;;;14.10;64.60;;;;;;5026910;28;20523;-83
2023/04/16 12:47:42;;;;;;;7.43;4.07;;;14.40;65.30;;;;;;5016018;28;20117;-81